sensor_id;sensor_type;location;lat;lon;timestamp;P1;durP1;ratioP1;P2;durP2;ratioP2
61407;SDS011;47274;43.054;25.146;2023-12-07T00:01:07;28.98;;;7.90;;
61407;SDS011;47274;43.054;25.146;2023-12-07T00:03:33;39.33;;;10.87;;
61407;SDS011;47274;43.054;25.146;2023-12-07T00:05:59;49.10;;;13.00;;
61407;SDS011;47274;43.054;25.146;2023-12-07T00:08:25;40.13;;;12.53;;
61407;SDS011;47274;43.054;25.146;2023-12-07T00:11:03;24.43;;;10.67;;
61407;SDS011;47274;43.054;25.146;2023-12-07T00:13:29;24.20;;;9.57;;
61407;SDS011;47274;43.054;25.146;2023-12-07T00:15:54;32.53;;;9.27;;
61407;SDS011;47274;43.054;25.146;2023-12-07T00:18:20;30.63;;;9.27;;
61407;SDS011;47274;43.054;25.146;2023-12-07T00:20:58;26.73;;;8.57;;
61407;SDS011;47274;43.054;25.146;2023-12-07T00:23:35;22.57;;;8.50;;
61407;SDS011;47274;43.054;25.146;2023-12-07T00:26:03;23.90;;;8.20;;
61407;SDS011;47274;43.054;25.146;2023-12-07T00:28:29;24.57;;;8.10;;
61407;SDS011;47274;43.054;25.146;2023-12-07T00:31:04;20.37;;;8.23;;
61407;SDS011;47274;43.054;25.146;2023-12-07T00:33:30;24.83;;;8.03;;
61407;SDS011;47274;43.054;25.146;2023-12-07T00:35:56;26.43;;;8.30;;
61407;SDS011;47274;43.054;25.146;2023-12-07T00:38:22;26.07;;;9.10;;
61407;SDS011;47274;43.054;25.146;2023-12-07T00:40:48;20.33;;;8.57;;
61407;SDS011;47274;43.054;25.146;2023-12-07T00:43:16;21.77;;;7.93;;
61407;SDS011;47274;43.054;25.146;2023-12-07T00:45:42;25.03;;;8.00;;
61407;SDS011;47274;43.054;25.146;2023-12-07T00:48:08;24.43;;;8.00;;
61407;SDS011;47274;43.054;25.146;2023-12-07T00:50:34;50.47;;;9.70;;
61407;SDS011;47274;43.054;25.146;2023-12-07T00:53:05;72.33;;;11.00;;
61407;SDS011;47274;43.054;25.146;2023-12-07T00:55:31;58.80;;;11.10;;
61407;SDS011;47274;43.054;25.146;2023-12-07T00:57:57;27.70;;;7.80;;
61407;SDS011;47274;43.054;25.146;2023-12-07T01:00:28;27.83;;;7.37;;
61407;SDS011;47274;43.054;25.146;2023-12-07T01:02:54;28.77;;;7.53;;
61407;SDS011;47274;43.054;25.146;2023-12-07T01:05:20;24.50;;;7.73;;
61407;SDS011;47274;43.054;25.146;2023-12-07T01:07:46;35.73;;;9.37;;
61407;SDS011;47274;43.054;25.146;2023-12-07T01:10:12;19.63;;;7.57;;
61407;SDS011;47274;43.054;25.146;2023-12-07T01:12:39;62.90;;;10.03;;
61407;SDS011;47274;43.054;25.146;2023-12-07T01:15:11;31.80;;;8.23;;
61407;SDS011;47274;43.054;25.146;2023-12-07T01:17:37;24.05;;;8.32;;
61407;SDS011;47274;43.054;25.146;2023-12-07T01:20:03;30.60;;;8.60;;
61407;SDS011;47274;43.054;25.146;2023-12-07T01:22:37;41.03;;;11.20;;
61407;SDS011;47274;43.054;25.146;2023-12-07T01:25:07;34.33;;;12.47;;
61407;SDS011;47274;43.054;25.146;2023-12-07T01:27:42;42.13;;;11.30;;
61407;SDS011;47274;43.054;25.146;2023-12-07T01:30:14;36.63;;;9.97;;
61407;SDS011;47274;43.054;25.146;2023-12-07T01:32:41;22.73;;;8.70;;
61407;SDS011;47274;43.054;25.146;2023-12-07T01:35:10;50.47;;;12.53;;
61407;SDS011;47274;43.054;25.146;2023-12-07T01:37:36;34.57;;;9.77;;
61407;SDS011;47274;43.054;25.146;2023-12-07T01:40:02;52.93;;;9.87;;
61407;SDS011;47274;43.054;25.146;2023-12-07T01:42:31;25.53;;;10.53;;
61407;SDS011;47274;43.054;25.146;2023-12-07T01:44:57;29.23;;;9.87;;
61407;SDS011;47274;43.054;25.146;2023-12-07T01:47:29;22.63;;;9.33;;
61407;SDS011;47274;43.054;25.146;2023-12-07T01:50:02;77.57;;;13.00;;
61407;SDS011;47274;43.054;25.146;2023-12-07T01:52:32;28.47;;;10.10;;
61407;SDS011;47274;43.054;25.146;2023-12-07T01:55:03;27.23;;;9.07;;
61407;SDS011;47274;43.054;25.146;2023-12-07T01:57:36;48.80;;;9.80;;
61407;SDS011;47274;43.054;25.146;2023-12-07T02:00:05;31.50;;;8.53;;
61407;SDS011;47274;43.054;25.146;2023-12-07T02:02:32;30.30;;;8.63;;
61407;SDS011;47274;43.054;25.146;2023-12-07T02:05:03;42.93;;;10.10;;
61407;SDS011;47274;43.054;25.146;2023-12-07T02:07:31;41.77;;;8.00;;
61407;SDS011;47274;43.054;25.146;2023-12-07T02:09:59;21.53;;;8.30;;
61407;SDS011;47274;43.054;25.146;2023-12-07T02:12:32;83.23;;;11.90;;
61407;SDS011;47274;43.054;25.146;2023-12-07T02:17:36;20.07;;;6.63;;
61407;SDS011;47274;43.054;25.146;2023-12-07T02:23:01;33.10;;;7.77;;
61407;SDS011;47274;43.054;25.146;2023-12-07T02:32:10;33.43;;;7.60;;
61407;SDS011;47274;43.054;25.146;2023-12-07T02:34:36;35.03;;;8.37;;
61407;SDS011;47274;43.054;25.146;2023-12-07T02:37:05;55.50;;;9.63;;
61407;SDS011;47274;43.054;25.146;2023-12-07T02:39:31;15.73;;;6.47;;
61407;SDS011;47274;43.054;25.146;2023-12-07T02:41:57;49.27;;;10.43;;
61407;SDS011;47274;43.054;25.146;2023-12-07T02:44:24;47.17;;;8.57;;
61407;SDS011;47274;43.054;25.146;2023-12-07T02:46:50;100.50;;;11.03;;
61407;SDS011;47274;43.054;25.146;2023-12-07T02:49:16;88.10;;;12.17;;
61407;SDS011;47274;43.054;25.146;2023-12-07T02:51:45;196.83;;;18.97;;
61407;SDS011;47274;43.054;25.146;2023-12-07T02:54:20;174.90;;;17.47;;
61407;SDS011;47274;43.054;25.146;2023-12-07T02:56:47;77.33;;;11.23;;
61407;SDS011;47274;43.054;25.146;2023-12-07T02:59:20;64.20;;;12.57;;
61407;SDS011;47274;43.054;25.146;2023-12-07T03:01:46;95.38;;;13.65;;
61407;SDS011;47274;43.054;25.146;2023-12-07T03:04:14;29.67;;;8.00;;
61407;SDS011;47274;43.054;25.146;2023-12-07T03:06:40;30.73;;;8.83;;
61407;SDS011;47274;43.054;25.146;2023-12-07T03:09:06;136.23;;;17.77;;
61407;SDS011;47274;43.054;25.146;2023-12-07T03:11:32;42.73;;;10.17;;
61407;SDS011;47274;43.054;25.146;2023-12-07T03:14:16;38.63;;;9.63;;
61407;SDS011;47274;43.054;25.146;2023-12-07T03:16:45;74.00;;;13.53;;
61407;SDS011;47274;43.054;25.146;2023-12-07T03:19:11;110.67;;;16.27;;
61407;SDS011;47274;43.054;25.146;2023-12-07T03:21:43;66.00;;;11.20;;
61407;SDS011;47274;43.054;25.146;2023-12-07T03:24:15;77.27;;;12.50;;
61407;SDS011;47274;43.054;25.146;2023-12-07T03:26:53;112.70;;;14.67;;
61407;SDS011;47274;43.054;25.146;2023-12-07T03:29:28;66.50;;;11.63;;
61407;SDS011;47274;43.054;25.146;2023-12-07T03:31:54;77.20;;;12.77;;
61407;SDS011;47274;43.054;25.146;2023-12-07T03:34:28;282.83;;;24.33;;
61407;SDS011;47274;43.054;25.146;2023-12-07T03:36:54;213.32;;;19.52;;
61407;SDS011;47274;43.054;25.146;2023-12-07T03:39:26;166.90;;;18.70;;
61407;SDS011;47274;43.054;25.146;2023-12-07T03:41:52;149.18;;;15.88;;
61407;SDS011;47274;43.054;25.146;2023-12-07T03:44:18;218.00;;;25.23;;
61407;SDS011;47274;43.054;25.146;2023-12-07T03:46:56;99.00;;;14.50;;
61407;SDS011;47274;43.054;25.146;2023-12-07T03:49:25;251.27;;;24.10;;
61407;SDS011;47274;43.054;25.146;2023-12-07T03:51:50;270.77;;;28.40;;
61407;SDS011;47274;43.054;25.146;2023-12-07T03:54:20;186.97;;;29.57;;
61407;SDS011;47274;43.054;25.146;2023-12-07T03:56:55;582.40;;;53.13;;
61407;SDS011;47274;43.054;25.146;2023-12-07T03:59:21;566.53;;;46.10;;
61407;SDS011;47274;43.054;25.146;2023-12-07T04:01:46;47.20;;;12.57;;
61407;SDS011;47274;43.054;25.146;2023-12-07T04:04:12;293.70;;;26.83;;
61407;SDS011;47274;43.054;25.146;2023-12-07T04:06:40;245.60;;;22.30;;
61407;SDS011;47274;43.054;25.146;2023-12-07T04:09:19;476.70;;;39.83;;
61407;SDS011;47274;43.054;25.146;2023-12-07T04:11:54;230.87;;;21.20;;
61407;SDS011;47274;43.054;25.146;2023-12-07T04:14:21;436.00;;;35.47;;
61407;SDS011;47274;43.054;25.146;2023-12-07T04:16:47;162.53;;;16.87;;
61407;SDS011;47274;43.054;25.146;2023-12-07T04:19:13;605.40;;;49.03;;
61407;SDS011;47274;43.054;25.146;2023-12-07T04:21:39;417.47;;;38.07;;
61407;SDS011;47274;43.054;25.146;2023-12-07T04:24:05;476.40;;;36.20;;
61407;SDS011;47274;43.054;25.146;2023-12-07T04:26:31;236.80;;;22.73;;
61407;SDS011;47274;43.054;25.146;2023-12-07T04:28:57;219.23;;;20.10;;
61407;SDS011;47274;43.054;25.146;2023-12-07T04:31:22;450.57;;;43.93;;
61407;SDS011;47274;43.054;25.146;2023-12-07T04:33:48;271.67;;;23.60;;
61407;SDS011;47274;43.054;25.146;2023-12-07T04:36:20;146.87;;;14.77;;
61407;SDS011;47274;43.054;25.146;2023-12-07T04:38:49;90.57;;;13.13;;
61407;SDS011;47274;43.054;25.146;2023-12-07T04:41:21;198.50;;;19.37;;
61407;SDS011;47274;43.054;25.146;2023-12-07T04:43:47;186.38;;;23.30;;
61407;SDS011;47274;43.054;25.146;2023-12-07T04:46:19;179.13;;;19.20;;
61407;SDS011;47274;43.054;25.146;2023-12-07T04:48:47;59.00;;;11.88;;
61407;SDS011;47274;43.054;25.146;2023-12-07T04:51:13;327.23;;;30.03;;
61407;SDS011;47274;43.054;25.146;2023-12-07T04:53:41;333.23;;;32.10;;
61407;SDS011;47274;43.054;25.146;2023-12-07T04:56:07;250.83;;;24.30;;
61407;SDS011;47274;43.054;25.146;2023-12-07T04:58:37;182.00;;;19.57;;
61407;SDS011;47274;43.054;25.146;2023-12-07T05:01:12;83.93;;;13.07;;
61407;SDS011;47274;43.054;25.146;2023-12-07T05:03:38;326.73;;;26.67;;
61407;SDS011;47274;43.054;25.146;2023-12-07T05:06:04;136.67;;;15.27;;
61407;SDS011;47274;43.054;25.146;2023-12-07T05:08:30;210.27;;;23.17;;
61407;SDS011;47274;43.054;25.146;2023-12-07T05:10:59;290.50;;;24.07;;
61407;SDS011;47274;43.054;25.146;2023-12-07T05:13:25;105.23;;;15.87;;
61407;SDS011;47274;43.054;25.146;2023-12-07T05:15:57;89.47;;;19.17;;
61407;SDS011;47274;43.054;25.146;2023-12-07T05:18:23;289.35;;;29.00;;
61407;SDS011;47274;43.054;25.146;2023-12-07T05:20:49;178.47;;;20.47;;
61407;SDS011;47274;43.054;25.146;2023-12-07T05:23:14;154.90;;;18.50;;
61407;SDS011;47274;43.054;25.146;2023-12-07T05:25:40;126.70;;;15.43;;
61407;SDS011;47274;43.054;25.146;2023-12-07T05:28:06;177.07;;;19.77;;
61407;SDS011;47274;43.054;25.146;2023-12-07T05:30:38;241.90;;;22.17;;
61407;SDS011;47274;43.054;25.146;2023-12-07T05:33:04;158.35;;;18.23;;
61407;SDS011;47274;43.054;25.146;2023-12-07T05:35:30;126.37;;;16.10;;
61407;SDS011;47274;43.054;25.146;2023-12-07T05:37:56;246.30;;;19.60;;
61407;SDS011;47274;43.054;25.146;2023-12-07T05:40:25;107.23;;;13.37;;
61407;SDS011;47274;43.054;25.146;2023-12-07T05:43:10;270.20;;;26.33;;
61407;SDS011;47274;43.054;25.146;2023-12-07T05:45:35;290.93;;;26.13;;
61407;SDS011;47274;43.054;25.146;2023-12-07T05:48:02;105.17;;;13.30;;
61407;SDS011;47274;43.054;25.146;2023-12-07T05:50:28;227.50;;;20.83;;
61407;SDS011;47274;43.054;25.146;2023-12-07T05:52:56;391.60;;;31.17;;
61407;SDS011;47274;43.054;25.146;2023-12-07T05:55:35;45.33;;;9.23;;
61407;SDS011;47274;43.054;25.146;2023-12-07T05:58:01;155.47;;;18.53;;
61407;SDS011;47274;43.054;25.146;2023-12-07T06:00:26;103.63;;;12.93;;
61407;SDS011;47274;43.054;25.146;2023-12-07T06:02:56;218.73;;;22.27;;
61407;SDS011;47274;43.054;25.146;2023-12-07T06:05:28;70.97;;;15.53;;
61407;SDS011;47274;43.054;25.146;2023-12-07T06:07:54;143.50;;;19.73;;
61407;SDS011;47274;43.054;25.146;2023-12-07T06:10:30;122.33;;;17.80;;
61407;SDS011;47274;43.054;25.146;2023-12-07T06:12:57;212.53;;;27.10;;
61407;SDS011;47274;43.054;25.146;2023-12-07T06:15:26;189.23;;;21.63;;
61407;SDS011;47274;43.054;25.146;2023-12-07T06:17:53;355.83;;;27.73;;
61407;SDS011;47274;43.054;25.146;2023-12-07T06:20:20;232.33;;;26.03;;
61407;SDS011;47274;43.054;25.146;2023-12-07T06:22:46;238.93;;;23.53;;
61407;SDS011;47274;43.054;25.146;2023-12-07T06:25:12;277.97;;;26.57;;
61407;SDS011;47274;43.054;25.146;2023-12-07T06:27:38;212.37;;;22.17;;
61407;SDS011;47274;43.054;25.146;2023-12-07T06:30:04;128.90;;;17.00;;
61407;SDS011;47274;43.054;25.146;2023-12-07T06:32:31;257.80;;;26.27;;
61407;SDS011;47274;43.054;25.146;2023-12-07T06:34:58;251.20;;;25.87;;
61407;SDS011;47274;43.054;25.146;2023-12-07T06:37:24;146.77;;;17.47;;
61407;SDS011;47274;43.054;25.146;2023-12-07T06:39:50;113.80;;;15.50;;
61407;SDS011;47274;43.054;25.146;2023-12-07T06:42:16;168.90;;;20.40;;
61407;SDS011;47274;43.054;25.146;2023-12-07T06:44:48;83.20;;;16.30;;
61407;SDS011;47274;43.054;25.146;2023-12-07T06:47:14;60.50;;;12.68;;
61407;SDS011;47274;43.054;25.146;2023-12-07T06:49:41;75.23;;;13.47;;
61407;SDS011;47274;43.054;25.146;2023-12-07T06:52:07;185.47;;;18.37;;
61407;SDS011;47274;43.054;25.146;2023-12-07T06:54:33;101.93;;;14.13;;
61407;SDS011;47274;43.054;25.146;2023-12-07T06:56:59;258.53;;;25.40;;
61407;SDS011;47274;43.054;25.146;2023-12-07T06:59:25;196.73;;;19.97;;
61407;SDS011;47274;43.054;25.146;2023-12-07T07:01:51;167.50;;;17.40;;
61407;SDS011;47274;43.054;25.146;2023-12-07T07:04:17;224.70;;;19.83;;
61407;SDS011;47274;43.054;25.146;2023-12-07T07:06:43;90.97;;;10.60;;
61407;SDS011;47274;43.054;25.146;2023-12-07T07:09:10;279.70;;;23.53;;
61407;SDS011;47274;43.054;25.146;2023-12-07T07:11:36;170.33;;;18.30;;
61407;SDS011;47274;43.054;25.146;2023-12-07T07:14:02;132.60;;;15.37;;
61407;SDS011;47274;43.054;25.146;2023-12-07T07:16:28;52.27;;;9.53;;
61407;SDS011;47274;43.054;25.146;2023-12-07T07:18:54;69.43;;;12.03;;
61407;SDS011;47274;43.054;25.146;2023-12-07T07:21:20;139.13;;;17.97;;
61407;SDS011;47274;43.054;25.146;2023-12-07T07:23:46;210.67;;;22.33;;
61407;SDS011;47274;43.054;25.146;2023-12-07T07:26:11;389.87;;;30.13;;
61407;SDS011;47274;43.054;25.146;2023-12-07T07:28:42;215.70;;;22.73;;
61407;SDS011;47274;43.054;25.146;2023-12-07T07:31:11;127.50;;;13.53;;
61407;SDS011;47274;43.054;25.146;2023-12-07T07:33:36;106.97;;;13.97;;
61407;SDS011;47274;43.054;25.146;2023-12-07T07:36:02;311.63;;;26.07;;
61407;SDS011;47274;43.054;25.146;2023-12-07T07:38:29;337.90;;;27.67;;
61407;SDS011;47274;43.054;25.146;2023-12-07T07:40:54;177.73;;;17.53;;
61407;SDS011;47274;43.054;25.146;2023-12-07T07:43:20;161.17;;;19.50;;
61407;SDS011;47274;43.054;25.146;2023-12-07T07:45:47;162.30;;;18.77;;
61407;SDS011;47274;43.054;25.146;2023-12-07T07:48:13;174.13;;;18.97;;
61407;SDS011;47274;43.054;25.146;2023-12-07T07:50:38;329.57;;;32.43;;
61407;SDS011;47274;43.054;25.146;2023-12-07T07:53:04;142.67;;;16.47;;
61407;SDS011;47274;43.054;25.146;2023-12-07T07:55:30;355.77;;;31.60;;
61407;SDS011;47274;43.054;25.146;2023-12-07T07:57:59;363.03;;;33.73;;
61407;SDS011;47274;43.054;25.146;2023-12-07T08:00:24;151.23;;;20.87;;
61407;SDS011;47274;43.054;25.146;2023-12-07T08:02:53;201.43;;;21.50;;
61407;SDS011;47274;43.054;25.146;2023-12-07T08:05:19;194.73;;;18.30;;
61407;SDS011;47274;43.054;25.146;2023-12-07T08:07:45;289.37;;;26.33;;
61407;SDS011;47274;43.054;25.146;2023-12-07T08:10:11;183.57;;;23.43;;
61407;SDS011;47274;43.054;25.146;2023-12-07T08:12:39;137.70;;;16.80;;
61407;SDS011;47274;43.054;25.146;2023-12-07T08:15:06;334.60;;;27.20;;
61407;SDS011;47274;43.054;25.146;2023-12-07T08:17:37;138.33;;;16.13;;
61407;SDS011;47274;43.054;25.146;2023-12-07T08:20:09;81.37;;;13.30;;
61407;SDS011;47274;43.054;25.146;2023-12-07T08:22:40;115.50;;;13.33;;
61407;SDS011;47274;43.054;25.146;2023-12-07T08:25:06;495.70;;;39.00;;
61407;SDS011;47274;43.054;25.146;2023-12-07T08:27:36;306.67;;;26.87;;
61407;SDS011;47274;43.054;25.146;2023-12-07T08:30:03;67.67;;;10.63;;
61407;SDS011;47274;43.054;25.146;2023-12-07T08:32:29;230.53;;;27.87;;
61407;SDS011;47274;43.054;25.146;2023-12-07T08:34:55;36.27;;;8.80;;
61407;SDS011;47274;43.054;25.146;2023-12-07T08:37:24;94.37;;;13.30;;
61407;SDS011;47274;43.054;25.146;2023-12-07T08:39:57;199.27;;;19.60;;
61407;SDS011;47274;43.054;25.146;2023-12-07T08:42:26;21.03;;;7.00;;
61407;SDS011;47274;43.054;25.146;2023-12-07T08:44:52;98.37;;;16.10;;
61407;SDS011;47274;43.054;25.146;2023-12-07T08:47:18;125.00;;;16.07;;
61407;SDS011;47274;43.054;25.146;2023-12-07T08:49:45;118.47;;;14.07;;
61407;SDS011;47274;43.054;25.146;2023-12-07T08:52:13;254.50;;;24.60;;
61407;SDS011;47274;43.054;25.146;2023-12-07T08:54:38;123.73;;;12.93;;
61407;SDS011;47274;43.054;25.146;2023-12-07T08:57:04;47.57;;;8.53;;
61407;SDS011;47274;43.054;25.146;2023-12-07T08:59:30;163.80;;;16.87;;
61407;SDS011;47274;43.054;25.146;2023-12-07T09:01:56;44.07;;;8.87;;
61407;SDS011;47274;43.054;25.146;2023-12-07T09:04:22;201.77;;;20.57;;
61407;SDS011;47274;43.054;25.146;2023-12-07T09:06:48;27.27;;;7.30;;
61407;SDS011;47274;43.054;25.146;2023-12-07T09:09:14;54.10;;;8.57;;
61407;SDS011;47274;43.054;25.146;2023-12-07T09:11:43;14.80;;;5.90;;
61407;SDS011;47274;43.054;25.146;2023-12-07T09:14:08;85.83;;;11.60;;
61407;SDS011;47274;43.054;25.146;2023-12-07T09:16:34;57.10;;;9.83;;
61407;SDS011;47274;43.054;25.146;2023-12-07T09:19:00;26.27;;;9.13;;
61407;SDS011;47274;43.054;25.146;2023-12-07T09:21:27;48.97;;;11.40;;
61407;SDS011;47274;43.054;25.146;2023-12-07T09:23:53;79.57;;;19.43;;
61407;SDS011;47274;43.054;25.146;2023-12-07T09:26:18;34.47;;;12.20;;
61407;SDS011;47274;43.054;25.146;2023-12-07T09:28:44;469.33;;;39.53;;
61407;SDS011;47274;43.054;25.146;2023-12-07T09:31:10;107.90;;;16.57;;
61407;SDS011;47274;43.054;25.146;2023-12-07T09:33:36;58.47;;;12.97;;
61407;SDS011;47274;43.054;25.146;2023-12-07T09:36:02;27.47;;;8.17;;
61407;SDS011;47274;43.054;25.146;2023-12-07T09:38:35;60.57;;;11.13;;
61407;SDS011;47274;43.054;25.146;2023-12-07T09:41:02;43.03;;;8.07;;
61407;SDS011;47274;43.054;25.146;2023-12-07T09:43:28;22.37;;;8.10;;
61407;SDS011;47274;43.054;25.146;2023-12-07T09:45:54;98.27;;;11.97;;
61407;SDS011;47274;43.054;25.146;2023-12-07T09:48:23;27.07;;;7.60;;
61407;SDS011;47274;43.054;25.146;2023-12-07T09:50:49;47.30;;;12.33;;
61407;SDS011;47274;43.054;25.146;2023-12-07T09:53:17;64.67;;;11.13;;
61407;SDS011;47274;43.054;25.146;2023-12-07T09:55:43;43.37;;;11.73;;
61407;SDS011;47274;43.054;25.146;2023-12-07T09:58:12;64.63;;;10.50;;
61407;SDS011;47274;43.054;25.146;2023-12-07T10:00:38;137.23;;;13.17;;
61407;SDS011;47274;43.054;25.146;2023-12-07T10:03:04;61.90;;;10.90;;
61407;SDS011;47274;43.054;25.146;2023-12-07T10:05:33;15.87;;;7.67;;
61407;SDS011;47274;43.054;25.146;2023-12-07T10:08:00;13.40;;;6.53;;
61407;SDS011;47274;43.054;25.146;2023-12-07T10:10:26;27.50;;;12.57;;
61407;SDS011;47274;43.054;25.146;2023-12-07T10:12:52;27.20;;;12.33;;
61407;SDS011;47274;43.054;25.146;2023-12-07T10:15:29;22.80;;;10.63;;
61407;SDS011;47274;43.054;25.146;2023-12-07T10:17:56;17.20;;;7.27;;
61407;SDS011;47274;43.054;25.146;2023-12-07T10:20:28;13.00;;;6.43;;
61407;SDS011;47274;43.054;25.146;2023-12-07T10:23:06;25.40;;;7.87;;
61407;SDS011;47274;43.054;25.146;2023-12-07T10:25:40;11.47;;;5.73;;
61407;SDS011;47274;43.054;25.146;2023-12-07T10:28:07;13.53;;;6.23;;
61407;SDS011;47274;43.054;25.146;2023-12-07T10:30:36;12.30;;;5.80;;
61407;SDS011;47274;43.054;25.146;2023-12-07T10:33:03;11.97;;;5.37;;
61407;SDS011;47274;43.054;25.146;2023-12-07T10:35:30;13.50;;;6.60;;
61407;SDS011;47274;43.054;25.146;2023-12-07T10:37:57;24.33;;;7.67;;
61407;SDS011;47274;43.054;25.146;2023-12-07T10:40:23;19.10;;;5.80;;
61407;SDS011;47274;43.054;25.146;2023-12-07T10:42:49;47.43;;;8.60;;
61407;SDS011;47274;43.054;25.146;2023-12-07T10:45:29;13.90;;;7.50;;
61407;SDS011;47274;43.054;25.146;2023-12-07T10:47:58;30.25;;;7.45;;
61407;SDS011;47274;43.054;25.146;2023-12-07T10:50:34;17.33;;;7.47;;
61407;SDS011;47274;43.054;25.146;2023-12-07T10:53:09;18.33;;;7.60;;
61407;SDS011;47274;43.054;25.146;2023-12-07T10:55:56;43.17;;;9.03;;
61407;SDS011;47274;43.054;25.146;2023-12-07T10:58:25;18.90;;;6.80;;
61407;SDS011;47274;43.054;25.146;2023-12-07T11:00:55;14.03;;;6.50;;
61407;SDS011;47274;43.054;25.146;2023-12-07T11:03:23;19.43;;;7.60;;
61407;SDS011;47274;43.054;25.146;2023-12-07T11:05:49;18.67;;;7.40;;
61407;SDS011;47274;43.054;25.146;2023-12-07T11:08:18;35.07;;;8.37;;
61407;SDS011;47274;43.054;25.146;2023-12-07T11:13:59;57.63;;;11.17;;
61407;SDS011;47274;43.054;25.146;2023-12-07T11:16:32;50.40;;;10.43;;
61407;SDS011;47274;43.054;25.146;2023-12-07T11:19:01;28.45;;;8.20;;
61407;SDS011;47274;43.054;25.146;2023-12-07T11:21:27;19.73;;;7.93;;
61407;SDS011;47274;43.054;25.146;2023-12-07T11:23:53;82.53;;;14.67;;
61407;SDS011;47274;43.054;25.146;2023-12-07T11:26:20;53.40;;;11.73;;
61407;SDS011;47274;43.054;25.146;2023-12-07T11:28:48;16.33;;;6.83;;
61407;SDS011;47274;43.054;25.146;2023-12-07T11:31:15;27.53;;;10.33;;
61407;SDS011;47274;43.054;25.146;2023-12-07T11:52:59;21.70;;;10.20;;
61407;SDS011;47274;43.054;25.146;2023-12-07T11:55:26;67.73;;;14.50;;
61407;SDS011;47274;43.054;25.146;2023-12-07T11:57:52;24.33;;;10.57;;
61407;SDS011;47274;43.054;25.146;2023-12-07T12:00:17;17.63;;;8.57;;
61407;SDS011;47274;43.054;25.146;2023-12-07T12:02:47;18.57;;;8.83;;
61407;SDS011;47274;43.054;25.146;2023-12-07T12:05:13;16.80;;;7.80;;
61407;SDS011;47274;43.054;25.146;2023-12-07T12:07:39;16.70;;;8.60;;
61407;SDS011;47274;43.054;25.146;2023-12-07T12:10:05;18.97;;;8.20;;
61407;SDS011;47274;43.054;25.146;2023-12-07T12:12:34;14.67;;;7.10;;
61407;SDS011;47274;43.054;25.146;2023-12-07T12:15:00;19.90;;;7.97;;
61407;SDS011;47274;43.054;25.146;2023-12-07T12:17:26;17.43;;;7.70;;
61407;SDS011;47274;43.054;25.146;2023-12-07T12:19:52;18.90;;;8.63;;
61407;SDS011;47274;43.054;25.146;2023-12-07T12:22:20;24.47;;;10.23;;
61407;SDS011;47274;43.054;25.146;2023-12-07T12:24:46;53.40;;;11.97;;
61407;SDS011;47274;43.054;25.146;2023-12-07T12:27:14;33.20;;;8.53;;
61407;SDS011;47274;43.054;25.146;2023-12-07T12:29:41;41.73;;;11.87;;
61407;SDS011;47274;43.054;25.146;2023-12-07T12:32:08;299.03;;;32.63;;
61407;SDS011;47274;43.054;25.146;2023-12-07T12:34:34;153.17;;;23.57;;
61407;SDS011;47274;43.054;25.146;2023-12-07T12:37:03;99.47;;;21.27;;
61407;SDS011;47274;43.054;25.146;2023-12-07T12:39:30;60.10;;;21.03;;
61407;SDS011;47274;43.054;25.146;2023-12-07T12:41:57;82.87;;;29.00;;
61407;SDS011;47274;43.054;25.146;2023-12-07T12:44:24;95.73;;;23.73;;
61407;SDS011;47274;43.054;25.146;2023-12-07T12:46:50;135.37;;;38.97;;
61407;SDS011;47274;43.054;25.146;2023-12-07T12:49:16;123.53;;;65.43;;
61407;SDS011;47274;43.054;25.146;2023-12-07T12:51:43;74.00;;;34.77;;
61407;SDS011;47274;43.054;25.146;2023-12-07T12:54:09;63.87;;;32.97;;
61407;SDS011;47274;43.054;25.146;2023-12-07T12:56:37;90.30;;;50.23;;
61407;SDS011;47274;43.054;25.146;2023-12-07T12:59:04;87.87;;;41.00;;
61407;SDS011;47274;43.054;25.146;2023-12-07T13:01:29;248.63;;;51.83;;
61407;SDS011;47274;43.054;25.146;2023-12-07T13:03:55;55.90;;;34.10;;
61407;SDS011;47274;43.054;25.146;2023-12-07T13:06:23;121.77;;;52.57;;
61407;SDS011;47274;43.054;25.146;2023-12-07T13:08:50;66.77;;;30.17;;
61407;SDS011;47274;43.054;25.146;2023-12-07T13:11:17;69.20;;;31.20;;
61407;SDS011;47274;43.054;25.146;2023-12-07T13:13:44;68.73;;;26.60;;
61407;SDS011;47274;43.054;25.146;2023-12-07T13:16:15;93.60;;;23.57;;
61407;SDS011;47274;43.054;25.146;2023-12-07T13:18:48;117.80;;;26.13;;
61407;SDS011;47274;43.054;25.146;2023-12-07T13:21:13;92.77;;;20.80;;
61407;SDS011;47274;43.054;25.146;2023-12-07T13:23:40;81.80;;;27.73;;
61407;SDS011;47274;43.054;25.146;2023-12-07T13:26:06;130.80;;;36.23;;
61407;SDS011;47274;43.054;25.146;2023-12-07T13:28:32;115.87;;;26.27;;
61407;SDS011;47274;43.054;25.146;2023-12-07T13:30:58;198.13;;;29.30;;
61407;SDS011;47274;43.054;25.146;2023-12-07T13:33:24;91.80;;;21.93;;
61407;SDS011;47274;43.054;25.146;2023-12-07T13:35:51;151.00;;;25.43;;
61407;SDS011;47274;43.054;25.146;2023-12-07T13:38:23;41.80;;;21.38;;
61407;SDS011;47274;43.054;25.146;2023-12-07T13:40:48;31.33;;;17.43;;
61407;SDS011;47274;43.054;25.146;2023-12-07T13:43:16;49.20;;;16.83;;
61407;SDS011;47274;43.054;25.146;2023-12-07T13:45:42;43.50;;;16.47;;
61407;SDS011;47274;43.054;25.146;2023-12-07T13:48:08;25.93;;;13.53;;
61407;SDS011;47274;43.054;25.146;2023-12-07T13:50:33;39.67;;;17.80;;
61407;SDS011;47274;43.054;25.146;2023-12-07T13:52:59;34.63;;;16.10;;
61407;SDS011;47274;43.054;25.146;2023-12-07T13:55:25;130.33;;;38.87;;
61407;SDS011;47274;43.054;25.146;2023-12-07T13:57:51;39.70;;;15.20;;
61407;SDS011;47274;43.054;25.146;2023-12-07T14:00:21;92.07;;;25.40;;
61407;SDS011;47274;43.054;25.146;2023-12-07T14:02:47;37.83;;;15.43;;
61407;SDS011;47274;43.054;25.146;2023-12-07T14:05:13;41.43;;;13.83;;
61407;SDS011;47274;43.054;25.146;2023-12-07T14:07:41;27.53;;;11.90;;
61407;SDS011;47274;43.054;25.146;2023-12-07T14:10:07;81.90;;;18.97;;
61407;SDS011;47274;43.054;25.146;2023-12-07T14:12:33;71.23;;;16.07;;
61407;SDS011;47274;43.054;25.146;2023-12-07T14:14:59;28.00;;;11.33;;
61407;SDS011;47274;43.054;25.146;2023-12-07T14:17:25;79.00;;;16.77;;
61407;SDS011;47274;43.054;25.146;2023-12-07T14:19:53;32.67;;;12.73;;
61407;SDS011;47274;43.054;25.146;2023-12-07T14:22:19;40.23;;;11.90;;
61407;SDS011;47274;43.054;25.146;2023-12-07T14:24:45;119.27;;;17.73;;
61407;SDS011;47274;43.054;25.146;2023-12-07T14:27:13;22.53;;;8.93;;
61407;SDS011;47274;43.054;25.146;2023-12-07T14:29:40;61.10;;;17.17;;
61407;SDS011;47274;43.054;25.146;2023-12-07T14:32:06;72.30;;;20.43;;
61407;SDS011;47274;43.054;25.146;2023-12-07T14:34:34;140.30;;;24.70;;
61407;SDS011;47274;43.054;25.146;2023-12-07T14:37:00;39.20;;;19.57;;
61407;SDS011;47274;43.054;25.146;2023-12-07T14:39:28;245.33;;;43.17;;
61407;SDS011;47274;43.054;25.146;2023-12-07T14:41:54;105.33;;;26.53;;
61407;SDS011;47274;43.054;25.146;2023-12-07T14:44:21;150.30;;;31.30;;
61407;SDS011;47274;43.054;25.146;2023-12-07T14:46:47;54.70;;;15.73;;